Time;durP1;ratioP1;P1;durP2;ratioP2;P2;SDS_P1;SDS_P2;PMS_P1;PMS_P2;Temp;Humidity;BMP_temperature;BMP_pressure;BME280_temperature;BME280_humidity;BME280_pressure;Samples;Min_cycle;Max_cycle;Signal;HPM_P1;HPM_P2
2023/05/31 00:02:16;;;;;;;0.00;0.00;;;11.90;81.80;;;;;;5000059;28;20088;-68
2023/05/31 00:04:42;;;;;;;0.00;0.00;;;11.90;82.00;;;;;;5026967;28;20103;-69
2023/05/31 00:07:07;;;;;;;0.00;0.00;;;11.90;82.00;;;;;;5027462;28;20577;-68
2023/05/31 00:09:33;;;;;;;0.00;0.00;;;11.90;82.00;;;;;;5009046;28;20117;-68
2023/05/31 00:11:59;;;;;;;0.00;0.00;;;11.90;82.10;;;;;;5025906;28;20545;-69
2023/05/31 00:14:25;;;;;;;0.00;0.00;;;11.90;82.10;;;;;;5010440;28;20084;-68
2023/05/31 00:16:51;;;;;;;0.00;0.00;;;11.90;82.10;;;;;;4990702;28;20499;-68
2023/05/31 00:19:17;;;;;;;0.10;0.10;;;11.90;82.10;;;;;;4995424;28;20054;-68
2023/05/31 00:21:45;;;;;;;0.10;0.10;;;11.80;82.00;;;;;;4999210;28;20054;-68
2023/05/31 00:24:11;;;;;;;0.00;0.00;;;11.80;82.10;;;;;;5008659;28;20418;-68
2023/05/31 00:26:36;;;;;;;0.00;0.00;;;11.80;82.30;;;;;;5007606;28;20050;-68
2023/05/31 00:29:02;;;;;;;0.00;0.00;;;11.70;82.30;;;;;;5008894;28;20045;-68
2023/05/31 00:31:27;;;;;;;0.00;0.00;;;11.70;82.30;;;;;;5008630;28;20045;-68
2023/05/31 00:33:53;;;;;;;0.00;0.00;;;11.70;82.20;;;;;;5003692;28;20046;-68
2023/05/31 00:36:19;;;;;;;0.00;0.00;;;11.70;82.10;;;;;;5002783;28;20065;-68
2023/05/31 00:38:44;;;;;;;0.00;0.00;;;11.60;82.30;;;;;;4988944;28;20038;-68
2023/05/31 00:41:10;;;;;;;0.00;0.00;;;11.60;82.20;;;;;;4987240;28;20049;-68
2023/05/31 00:43:36;;;;;;;0.00;0.00;;;11.70;82.20;;;;;;5006106;28;20040;-68
2023/05/31 00:46:02;;;;;;;0.00;0.00;;;11.60;82.40;;;;;;5004803;28;20565;-68
2023/05/31 00:48:29;;;;;;;0.00;0.00;;;11.60;82.30;;;;;;4990206;28;20406;-68
2023/05/31 00:50:55;;;;;;;0.00;0.00;;;11.60;82.40;;;;;;4989484;28;20082;-68
2023/05/31 00:53:21;;;;;;;0.00;0.00;;;11.60;82.40;;;;;;5006742;28;20088;-68
2023/05/31 00:55:48;;;;;;;0.00;0.00;;;11.60;82.60;;;;;;5003799;28;20043;-68
2023/05/31 00:58:16;;;;;;;0.00;0.00;;;11.60;82.60;;;;;;4999930;28;20088;-68
2023/05/31 01:00:42;;;;;;;0.00;0.00;;;11.60;82.60;;;;;;5003771;28;20411;-67
2023/05/31 01:03:08;;;;;;;0.00;0.00;;;11.60;82.60;;;;;;4994482;28;20050;-68
2023/05/31 01:05:35;;;;;;;0.00;0.00;;;11.60;82.60;;;;;;5004867;28;20117;-68
2023/05/31 01:08:01;;;;;;;0.00;0.00;;;11.60;82.60;;;;;;5005056;28;20050;-68
2023/05/31 01:10:28;;;;;;;0.00;0.00;;;11.60;82.70;;;;;;5002568;28;20049;-67
2023/05/31 01:13:04;;;;;;;0.32;0.32;;;11.60;82.80;;;;;;5000783;28;20046;-67
2023/05/31 01:15:39;;;;;;;0.00;0.00;;;11.60;82.70;;;;;;5009049;28;20054;-67
2023/05/31 01:18:26;;;;;;;0.00;0.00;;;11.50;82.60;;;;;;5009978;28;20484;-68
2023/05/31 01:20:57;;;;;;;0.00;0.00;;;11.50;82.60;;;;;;5003498;28;20086;-67
2023/05/31 01:23:31;;;;;;;0.00;0.00;;;11.40;82.70;;;;;;4994085;28;20038;-67
2023/05/31 01:26:30;;;;;;;0.00;0.00;;;11.40;82.90;;;;;;4986568;28;20050;-67
2023/05/31 01:29:01;;;;;;;0.00;0.00;;;11.40;82.90;;;;;;4994670;28;20050;-67
2023/05/31 01:31:30;;;;;;;0.00;0.00;;;11.40;82.90;;;;;;5006366;28;20038;-67
2023/05/31 01:33:56;;;;;;;0.00;0.00;;;11.40;82.90;;;;;;5009693;28;20088;-67
2023/05/31 01:36:21;;;;;;;0.00;0.00;;;11.30;82.90;;;;;;5001280;28;20054;-67
2023/05/31 01:38:47;;;;;;;0.00;0.00;;;11.30;82.80;;;;;;4996974;28;20034;-67
2023/05/31 01:41:14;;;;;;;0.00;0.00;;;11.30;82.90;;;;;;4999129;28;20056;-67
2023/05/31 01:43:44;;;;;;;0.00;0.00;;;11.30;82.90;;;;;;5007540;28;20057;-67
2023/05/31 01:46:13;;;;;;;0.30;0.30;;;11.30;83.00;;;;;;5009609;28;20061;-68
2023/05/31 01:48:40;;;;;;;0.00;0.00;;;11.30;83.00;;;;;;5004514;28;20054;-68
2023/05/31 01:51:08;;;;;;;0.00;0.00;;;11.20;83.00;;;;;;5007635;28;20403;-68
2023/05/31 01:53:34;;;;;;;0.00;0.00;;;11.20;82.90;;;;;;5005051;28;20034;-68
2023/05/31 01:56:01;;;;;;;0.00;0.00;;;11.30;82.90;;;;;;5008115;28;20053;-68
2023/05/31 01:58:28;;;;;;;0.00;0.00;;;11.20;83.00;;;;;;5009714;28;20100;-68
2023/05/31 02:00:54;;;;;;;0.00;0.00;;;11.20;82.90;;;;;;4994791;28;20046;-68
2023/05/31 02:03:20;;;;;;;0.00;0.00;;;11.20;82.90;;;;;;5007920;28;20616;-68
2023/05/31 02:05:58;;;;;;;0.00;0.00;;;11.10;82.90;;;;;;4996694;28;20046;-68
2023/05/31 02:08:25;;;;;;;0.00;0.00;;;11.10;83.00;;;;;;5009461;28;20120;-68
2023/05/31 02:10:51;;;;;;;0.00;0.00;;;11.10;83.00;;;;;;5000985;28;20042;-68
2023/05/31 02:13:18;;;;;;;0.00;0.00;;;11.10;83.10;;;;;;4998206;28;20073;-68
2023/05/31 02:15:44;;;;;;;0.00;0.00;;;11.10;83.20;;;;;;5004581;28;20108;-68
2023/05/31 02:18:09;;;;;;;0.00;0.00;;;11.10;83.30;;;;;;5018718;28;20045;-68
2023/05/31 02:20:35;;;;;;;0.00;0.00;;;11.00;83.40;;;;;;5022812;28;20056;-67
2023/05/31 02:23:01;;;;;;;0.00;0.00;;;11.00;83.40;;;;;;5008953;28;20080;-67
2023/05/31 02:25:26;;;;;;;0.00;0.00;;;11.00;83.50;;;;;;5011552;28;20038;-67
2023/05/31 02:27:52;;;;;;;0.00;0.00;;;11.00;83.40;;;;;;4996004;28;20442;-67
2023/05/31 02:30:18;;;;;;;0.00;0.00;;;11.00;83.60;;;;;;5028441;28;20042;-67
2023/05/31 02:32:43;;;;;;;0.00;0.00;;;11.00;83.90;;;;;;5010728;28;20498;-66
2023/05/31 02:35:10;;;;;;;0.00;0.00;;;11.00;83.90;;;;;;5019228;28;20080;-67
2023/05/31 02:37:37;;;;;;;0.00;0.00;;;10.90;83.80;;;;;;5015859;28;20495;-67
2023/05/31 02:40:08;;;;;;;0.00;0.00;;;10.90;83.90;;;;;;5022611;28;20045;-67
2023/05/31 02:42:40;;;;;;;0.10;0.10;;;10.90;83.80;;;;;;5022216;28;20044;-67
2023/05/31 02:45:06;;;;;;;0.00;0.00;;;10.90;83.80;;;;;;5016361;28;20522;-67
2023/05/31 02:47:32;;;;;;;0.00;0.00;;;10.90;84.10;;;;;;5015191;28;20048;-67
2023/05/31 02:49:58;;;;;;;0.00;0.00;;;10.90;84.10;;;;;;5001283;28;20041;-67
2023/05/31 02:52:27;;;;;;;0.00;0.00;;;10.90;84.00;;;;;;5015897;28;20045;-67
2023/05/31 02:54:53;;;;;;;0.00;0.00;;;10.90;84.40;;;;;;5026292;28;20140;-67
2023/05/31 02:57:18;;;;;;;0.00;0.00;;;10.90;84.40;;;;;;5018612;28;20439;-67
2023/05/31 02:59:45;;;;;;;0.00;0.00;;;10.80;84.60;;;;;;5011663;28;21239;-67
2023/05/31 03:02:11;;;;;;;0.00;0.00;;;10.80;84.60;;;;;;5015552;28;20045;-67
2023/05/31 03:04:37;;;;;;;0.00;0.00;;;10.80;84.50;;;;;;5017825;28;20095;-67
2023/05/31 03:07:02;;;;;;;0.00;0.00;;;10.80;84.50;;;;;;4992285;28;20042;-67
2023/05/31 03:09:28;;;;;;;0.00;0.00;;;10.70;84.40;;;;;;5011116;28;20112;-68
2023/05/31 03:11:54;;;;;;;0.00;0.00;;;10.80;84.60;;;;;;5013202;28;20133;-67
2023/05/31 03:14:20;;;;;;;0.00;0.00;;;10.80;84.60;;;;;;5025487;28;20085;-67
2023/05/31 03:16:46;;;;;;;0.00;0.00;;;10.70;84.70;;;;;;5010593;28;20473;-67
2023/05/31 03:19:12;;;;;;;0.00;0.00;;;10.70;84.80;;;;;;5018777;28;20049;-68
2023/05/31 03:21:38;;;;;;;0.00;0.00;;;10.70;84.80;;;;;;5028173;28;20045;-67
2023/05/31 03:24:04;;;;;;;0.00;0.00;;;10.80;84.90;;;;;;5012931;28;20076;-67
2023/05/31 03:26:30;;;;;;;0.00;0.00;;;10.70;84.90;;;;;;5012319;28;20042;-67
2023/05/31 03:28:56;;;;;;;0.00;0.00;;;10.70;85.00;;;;;;5012146;28;20646;-67
2023/05/31 03:31:21;;;;;;;0.00;0.00;;;10.70;85.00;;;;;;5014060;28;20124;-67
2023/05/31 03:33:47;;;;;;;0.00;0.00;;;10.80;85.10;;;;;;5012782;28;20694;-67
2023/05/31 03:36:13;;;;;;;0.00;0.00;;;10.80;85.20;;;;;;5017160;28;20074;-68
2023/05/31 03:38:38;;;;;;;0.00;0.00;;;10.70;85.60;;;;;;5015028;28;20050;-67
2023/05/31 03:41:04;;;;;;;0.00;0.00;;;10.80;85.60;;;;;;5022213;28;20498;-67
2023/05/31 03:43:30;;;;;;;0.20;0.20;;;10.80;85.40;;;;;;5026433;28;20666;-67
2023/05/31 03:46:00;;;;;;;0.00;0.00;;;10.70;85.70;;;;;;5007974;28;20044;-67
2023/05/31 03:48:28;;;;;;;0.00;0.00;;;10.70;85.70;;;;;;5000006;28;20045;-67
2023/05/31 03:50:55;;;;;;;0.00;0.00;;;10.70;85.60;;;;;;5007398;28;20037;-67
2023/05/31 03:53:22;;;;;;;0.00;0.00;;;10.70;85.60;;;;;;5007124;28;20049;-67
2023/05/31 03:55:48;;;;;;;0.00;0.00;;;10.60;85.50;;;;;;5014758;28;20508;-67
2023/05/31 03:58:13;;;;;;;0.00;0.00;;;10.70;85.60;;;;;;5008625;28;20131;-67
2023/05/31 04:00:41;;;;;;;0.00;0.00;;;10.70;85.80;;;;;;5012418;28;20040;-67
2023/05/31 04:03:07;;;;;;;0.00;0.00;;;10.70;85.70;;;;;;5007963;28;20042;-67
2023/05/31 04:05:33;;;;;;;0.00;0.00;;;10.70;85.80;;;;;;5019795;28;20041;-67
2023/05/31 04:07:59;;;;;;;0.00;0.00;;;10.70;85.80;;;;;;5017605;28;20053;-67
2023/05/31 04:10:24;;;;;;;0.00;0.00;;;10.70;85.80;;;;;;4997357;28;20049;-67
2023/05/31 04:12:50;;;;;;;0.00;0.00;;;10.70;85.70;;;;;;5017710;28;20048;-67
2023/05/31 04:15:16;;;;;;;0.00;0.00;;;10.80;85.80;;;;;;5019537;28;20050;-67
2023/05/31 04:17:41;;;;;;;0.00;0.00;;;10.80;85.80;;;;;;5009633;28;20140;-67
2023/05/31 04:20:08;;;;;;;0.47;0.47;;;10.80;86.00;;;;;;4982751;28;20038;-67
2023/05/31 04:22:35;;;;;;;0.00;0.00;;;10.80;86.10;;;;;;4973177;28;20553;-68
2023/05/31 04:25:03;;;;;;;0.00;0.00;;;10.80;86.00;;;;;;5009639;28;20142;-67
2023/05/31 04:27:32;;;;;;;0.00;0.00;;;10.80;86.10;;;;;;5021779;28;20041;-68
2023/05/31 04:29:58;;;;;;;0.00;0.00;;;10.80;86.20;;;;;;5025812;28;20045;-67
2023/05/31 04:32:27;;;;;;;0.00;0.00;;;10.90;86.20;;;;;;5022835;28;20407;-68
2023/05/31 04:34:57;;;;;;;0.00;0.00;;;10.90;86.10;;;;;;4983813;28;20042;-67
2023/05/31 04:37:26;;;;;;;0.00;0.00;;;10.90;86.10;;;;;;5022306;28;20154;-67
2023/05/31 04:39:52;;;;;;;0.00;0.00;;;11.00;86.10;;;;;;5022141;28;20033;-67
2023/05/31 04:42:18;;;;;;;0.00;0.00;;;11.00;86.40;;;;;;5015812;28;20485;-67
2023/05/31 04:44:45;;;;;;;0.00;0.00;;;11.10;86.50;;;;;;5008300;28;20399;-67
2023/05/31 04:47:11;;;;;;;0.00;0.00;;;11.10;86.50;;;;;;5022805;28;20124;-67
2023/05/31 04:49:36;;;;;;;0.00;0.00;;;11.10;86.30;;;;;;5022945;28;20218;-66
2023/05/31 04:52:02;;;;;;;0.00;0.00;;;11.10;86.00;;;;;;5024197;28;20059;-66
2023/05/31 04:54:28;;;;;;;0.00;0.00;;;11.10;86.30;;;;;;5026395;28;20041;-65
2023/05/31 04:56:54;;;;;;;0.00;0.00;;;11.10;86.40;;;;;;4997743;28;20087;-67
2023/05/31 04:59:20;;;;;;;0.00;0.00;;;11.20;86.50;;;;;;5026607;28;20675;-66
2023/05/31 05:01:47;;;;;;;0.00;0.00;;;11.20;86.20;;;;;;5022090;28;20056;-66
2023/05/31 05:04:13;;;;;;;0.00;0.00;;;11.30;86.40;;;;;;5024370;28;20053;-66
2023/05/31 05:06:41;;;;;;;0.00;0.00;;;11.30;86.50;;;;;;5013284;28;20121;-66
2023/05/31 05:09:06;;;;;;;0.00;0.00;;;11.40;86.40;;;;;;5012687;28;20076;-66
2023/05/31 05:11:32;;;;;;;0.20;0.20;;;11.40;86.20;;;;;;4999572;28;20128;-66
2023/05/31 05:13:57;;;;;;;0.00;0.00;;;11.50;86.40;;;;;;5024489;28;20053;-65
2023/05/31 05:16:23;;;;;;;0.00;0.00;;;11.50;86.10;;;;;;5026348;28;20538;-67
2023/05/31 05:18:49;;;;;;;0.00;0.00;;;11.60;86.30;;;;;;4989474;28;20053;-67
2023/05/31 05:21:15;;;;;;;0.28;0.28;;;11.60;86.60;;;;;;5024290;28;20056;-67
2023/05/31 05:23:41;;;;;;;0.00;0.00;;;11.60;86.60;;;;;;5027830;28;20037;-67
2023/05/31 05:26:06;;;;;;;0.10;0.10;;;11.70;86.70;;;;;;5026805;28;20045;-67
2023/05/31 05:28:32;;;;;;;0.00;0.00;;;11.80;86.90;;;;;;5009487;28;20482;-68
2023/05/31 05:30:57;;;;;;;0.10;0.10;;;11.80;86.60;;;;;;5027485;28;20034;-67
2023/05/31 05:33:23;;;;;;;0.00;0.00;;;11.90;86.10;;;;;;5011268;28;20156;-69
2023/05/31 05:35:48;;;;;;;0.00;0.00;;;12.00;85.50;;;;;;5010587;28;20562;-69
2023/05/31 05:38:14;;;;;;;0.00;0.00;;;12.10;85.00;;;;;;5028685;28;20038;-68
2023/05/31 05:40:40;;;;;;;0.10;0.10;;;12.10;85.20;;;;;;5030936;28;20041;-68
2023/05/31 05:43:06;;;;;;;0.00;0.00;;;12.20;85.30;;;;;;4997678;28;20057;-68
2023/05/31 05:45:31;;;;;;;0.00;0.00;;;12.20;85.00;;;;;;5015338;28;20038;-68
2023/05/31 05:47:57;;;;;;;0.00;0.00;;;12.20;85.40;;;;;;4995740;28;20065;-68
2023/05/31 05:50:22;;;;;;;0.00;0.00;;;12.30;85.50;;;;;;5031277;28;20053;-68
2023/05/31 05:52:48;;;;;;;0.00;0.00;;;12.40;85.50;;;;;;5031261;28;20129;-68
2023/05/31 05:55:15;;;;;;;0.10;0.10;;;12.40;85.40;;;;;;5030959;28;20505;-69
2023/05/31 05:57:40;;;;;;;1.85;0.98;;;12.50;85.50;;;;;;5013473;28;20042;-69
2023/05/31 06:00:11;;;;;;;0.00;0.00;;;12.60;85.40;;;;;;5019014;28;20044;-68
2023/05/31 06:02:37;;;;;;;0.00;0.00;;;12.60;85.50;;;;;;5023692;28;20406;-69
2023/05/31 06:05:04;;;;;;;0.00;0.00;;;12.70;85.60;;;;;;5030741;28;20037;-69
2023/05/31 06:07:30;;;;;;;0.00;0.00;;;12.80;85.40;;;;;;5030584;28;20087;-69
2023/05/31 06:09:56;;;;;;;0.00;0.00;;;12.80;85.30;;;;;;5030531;28;20069;-70
2023/05/31 06:12:21;;;;;;;0.00;0.00;;;13.00;85.60;;;;;;5031013;28;20046;-69
2023/05/31 06:14:48;;;;;;;0.10;0.10;;;13.00;85.40;;;;;;5030427;28;20056;-69
2023/05/31 06:17:13;;;;;;;0.00;0.00;;;13.10;85.40;;;;;;5030756;28;20560;-68
2023/05/31 06:19:39;;;;;;;0.00;0.00;;;13.10;85.30;;;;;;5029644;28;20049;-68
2023/05/31 06:22:05;;;;;;;0.00;0.00;;;13.20;85.20;;;;;;5029632;28;20025;-68
2023/05/31 06:24:30;;;;;;;0.00;0.00;;;13.20;85.40;;;;;;5030573;28;20494;-68
2023/05/31 06:26:56;;;;;;;0.00;0.00;;;13.30;85.20;;;;;;5030115;28;20045;-68
2023/05/31 06:29:22;;;;;;;0.00;0.00;;;13.30;85.20;;;;;;5030602;28;20084;-68
2023/05/31 06:31:47;;;;;;;0.10;0.10;;;13.40;85.10;;;;;;5030385;28;20067;-67
2023/05/31 06:34:13;;;;;;;0.00;0.00;;;13.50;84.90;;;;;;5028770;28;20083;-69
2023/05/31 06:36:38;;;;;;;0.00;0.00;;;13.60;84.90;;;;;;5030307;28;20144;-68
2023/05/31 06:39:04;;;;;;;0.00;0.00;;;13.60;84.80;;;;;;5030243;28;20077;-67
2023/05/31 06:41:32;;;;;;;0.05;0.05;;;13.60;84.70;;;;;;5029923;28;20049;-68
2023/05/31 06:43:57;;;;;;;0.00;0.00;;;13.70;84.70;;;;;;5028692;28;20505;-67
2023/05/31 06:46:23;;;;;;;1.75;1.45;;;13.80;84.40;;;;;;5013012;28;20057;-68
2023/05/31 06:48:49;;;;;;;0.13;0.13;;;13.80;84.20;;;;;;4988980;28;20057;-67
2023/05/31 06:51:16;;;;;;;0.00;0.00;;;13.90;84.00;;;;;;5015464;28;20142;-66
2023/05/31 06:53:41;;;;;;;0.00;0.00;;;13.90;84.00;;;;;;5001398;28;20053;-66
2023/05/31 06:56:07;;;;;;;0.00;0.00;;;14.00;84.10;;;;;;4994949;28;20096;-65
2023/05/31 06:58:32;;;;;;;0.10;0.10;;;14.00;84.00;;;;;;5021674;28;20045;-66
2023/05/31 07:00:58;;;;;;;0.00;0.00;;;14.00;83.80;;;;;;5020704;28;20495;-66
2023/05/31 07:03:24;;;;;;;0.00;0.00;;;14.10;83.80;;;;;;5025157;28;20048;-65
2023/05/31 07:05:50;;;;;;;0.00;0.00;;;14.10;83.80;;;;;;4982512;28;20061;-65
2023/05/31 07:08:16;;;;;;;0.55;0.55;;;14.20;83.70;;;;;;4995903;28;20104;-66
2023/05/31 07:10:41;;;;;;;0.00;0.00;;;14.30;83.60;;;;;;5027367;28;20046;-67
2023/05/31 07:13:07;;;;;;;0.00;0.00;;;14.40;83.40;;;;;;5011141;28;20500;-66
2023/05/31 07:15:33;;;;;;;0.00;0.00;;;14.50;83.30;;;;;;4991287;28;20057;-66
2023/05/31 07:17:59;;;;;;;0.00;0.00;;;14.50;83.00;;;;;;5009073;28;20042;-66
2023/05/31 07:20:24;;;;;;;0.00;0.00;;;14.50;83.00;;;;;;5009339;28;20048;-65
2023/05/31 07:22:51;;;;;;;0.00;0.00;;;14.60;82.90;;;;;;4991345;28;20137;-64
2023/05/31 07:25:16;;;;;;;0.00;0.00;;;14.60;82.80;;;;;;5008754;28;20050;-64
2023/05/31 07:27:42;;;;;;;0.05;0.05;;;14.80;82.60;;;;;;4991230;28;20054;-65
2023/05/31 07:30:08;;;;;;;0.00;0.00;;;14.90;82.30;;;;;;5007732;28;20073;-64
2023/05/31 07:32:34;;;;;;;0.00;0.00;;;14.90;82.10;;;;;;5008043;28;20060;-64
2023/05/31 07:35:00;;;;;;;0.00;0.00;;;14.90;81.90;;;;;;5009365;28;20581;-65
2023/05/31 07:37:25;;;;;;;0.28;0.28;;;15.00;81.60;;;;;;5008443;28;20104;-66
2023/05/31 07:39:51;;;;;;;0.00;0.00;;;15.10;81.40;;;;;;5008367;28;20048;-65
2023/05/31 07:42:16;;;;;;;0.00;0.00;;;15.10;81.20;;;;;;5007964;28;20836;-65
2023/05/31 07:44:42;;;;;;;0.93;0.93;;;15.10;80.90;;;;;;5004830;28;20499;-66
2023/05/31 07:47:08;;;;;;;0.10;0.10;;;15.20;80.70;;;;;;5008219;28;20407;-65
2023/05/31 07:49:33;;;;;;;0.20;0.20;;;15.20;80.80;;;;;;5003082;28;20419;-65
2023/05/31 07:51:59;;;;;;;0.00;0.00;;;15.20;80.70;;;;;;5004512;28;20038;-65
2023/05/31 07:54:25;;;;;;;0.00;0.00;;;15.30;80.60;;;;;;4989941;28;20058;-65
2023/05/31 07:56:50;;;;;;;0.32;0.30;;;15.40;80.20;;;;;;5001826;28;20046;-65
2023/05/31 07:59:16;;;;;;;0.00;0.00;;;15.40;80.00;;;;;;5007045;28;20069;-65
2023/05/31 08:01:42;;;;;;;0.00;0.00;;;15.40;79.80;;;;;;4992690;28;20060;-66
2023/05/31 08:04:09;;;;;;;0.28;0.28;;;15.50;79.90;;;;;;4993785;28;20038;-65
2023/05/31 08:06:36;;;;;;;0.00;0.00;;;15.50;79.60;;;;;;4997666;28;20522;-65
2023/05/31 08:09:05;;;;;;;0.20;0.20;;;15.60;79.60;;;;;;5006412;28;20127;-66
2023/05/31 08:11:31;;;;;;;0.15;0.15;;;15.70;79.30;;;;;;5007195;28;20399;-65
2023/05/31 08:13:56;;;;;;;0.57;0.57;;;15.60;79.30;;;;;;5006933;28;20050;-66
2023/05/31 08:16:22;;;;;;;0.00;0.00;;;15.70;79.40;;;;;;5019236;28;20510;-65
2023/05/31 08:18:48;;;;;;;0.10;0.10;;;15.90;79.20;;;;;;5027491;28;20050;-65
2023/05/31 08:21:14;;;;;;;0.45;0.45;;;15.90;78.70;;;;;;5027741;28;20061;-65
2023/05/31 08:23:41;;;;;;;0.00;0.00;;;16.00;78.50;;;;;;5027279;28;20399;-65
2023/05/31 08:26:06;;;;;;;0.00;0.00;;;16.00;78.60;;;;;;5027620;28;20485;-65
2023/05/31 08:28:32;;;;;;;0.00;0.00;;;16.00;78.60;;;;;;5027420;28;20125;-65
2023/05/31 08:30:57;;;;;;;0.00;0.00;;;16.10;78.50;;;;;;5027553;28;20778;-66
2023/05/31 08:33:28;;;;;;;0.00;0.00;;;16.20;78.40;;;;;;4993262;28;20049;-65
2023/05/31 08:35:59;;;;;;;0.00;0.00;;;16.30;78.30;;;;;;5026687;28;20429;-65
2023/05/31 08:38:26;;;;;;;0.00;0.00;;;16.40;78.50;;;;;;5017301;28;20542;-67
2023/05/31 08:40:52;;;;;;;0.00;0.00;;;16.50;78.20;;;;;;5027508;28;20132;-66
2023/05/31 08:43:21;;;;;;;0.00;0.00;;;16.50;78.10;;;;;;5027299;28;20136;-64
2023/05/31 08:45:49;;;;;;;0.00;0.00;;;16.60;78.10;;;;;;5018944;28;20124;-67
2023/05/31 08:48:24;;;;;;;0.00;0.00;;;16.60;77.70;;;;;;5027467;28;20089;-64
2023/05/31 08:50:50;;;;;;;0.00;0.00;;;16.70;77.60;;;;;;5027255;28;20052;-67
2023/05/31 08:53:18;;;;;;;0.10;0.10;;;16.70;77.40;;;;;;5027699;28;20064;-66
2023/05/31 08:55:46;;;;;;;1.45;0.63;;;16.80;76.80;;;;;;5027448;28;20537;-66
2023/05/31 08:58:13;;;;;;;0.00;0.00;;;16.90;77.20;;;;;;5027649;28;20052;-65
2023/05/31 09:00:38;;;;;;;0.60;0.45;;;17.00;76.80;;;;;;5025498;28;20146;-65
2023/05/31 09:03:07;;;;;;;0.03;0.03;;;17.00;76.80;;;;;;5026444;28;20633;-64
2023/05/31 09:05:32;;;;;;;0.00;0.00;;;17.10;77.30;;;;;;5024651;28;20502;-65
2023/05/31 09:08:02;;;;;;;0.00;0.00;;;17.10;76.90;;;;;;5027454;28;20049;-65
2023/05/31 09:10:28;;;;;;;0.00;0.00;;;17.20;76.60;;;;;;5021041;28;20048;-65
2023/05/31 09:12:54;;;;;;;0.00;0.00;;;17.10;76.60;;;;;;4994094;28;20182;-67
2023/05/31 09:15:22;;;;;;;1.45;0.80;;;17.00;76.50;;;;;;5010964;28;20896;-65
2023/05/31 09:17:48;;;;;;;0.00;0.00;;;17.00;76.70;;;;;;5013795;28;20156;-65
2023/05/31 09:20:13;;;;;;;0.00;0.00;;;17.10;76.90;;;;;;5013802;28;20072;-66
2023/05/31 09:22:39;;;;;;;0.00;0.00;;;17.10;76.80;;;;;;5032088;28;20160;-65
2023/05/31 09:25:06;;;;;;;0.00;0.00;;;17.20;76.30;;;;;;5031605;28;20881;-66
2023/05/31 09:27:39;;;;;;;0.00;0.00;;;17.10;76.70;;;;;;5031661;28;20053;-65
2023/05/31 09:30:08;;;;;;;0.00;0.00;;;17.20;76.80;;;;;;5020832;28;20042;-65
2023/05/31 09:32:35;;;;;;;0.00;0.00;;;17.20;76.50;;;;;;5012339;28;20055;-65
2023/05/31 09:35:15;;;;;;;0.00;0.00;;;17.30;76.20;;;;;;5030573;28;20054;-64
2023/05/31 09:37:46;;;;;;;0.00;0.00;;;17.40;76.20;;;;;;5030705;28;20124;-64
2023/05/31 09:40:29;;;;;;;0.00;0.00;;;17.50;75.90;;;;;;5029388;28;20033;-64
2023/05/31 09:42:55;;;;;;;0.05;0.05;;;17.50;75.30;;;;;;5022417;28;20415;-64
2023/05/31 09:45:21;;;;;;;0.10;0.10;;;17.50;75.40;;;;;;5026394;28;20038;-64
2023/05/31 09:47:48;;;;;;;0.35;0.35;;;17.50;75.40;;;;;;4997297;28;20054;-63
2023/05/31 09:50:24;;;;;;;0.00;0.00;;;17.50;74.90;;;;;;5022638;28;20045;-64
2023/05/31 09:52:55;;;;;;;0.00;0.00;;;17.40;75.30;;;;;;5021518;28;20057;-63
2023/05/31 09:55:21;;;;;;;0.05;0.05;;;17.40;75.10;;;;;;5029798;28;20606;-64
2023/05/31 09:57:48;;;;;;;0.00;0.00;;;17.30;75.00;;;;;;5019940;28;20054;-64
2023/05/31 10:00:16;;;;;;;0.00;0.00;;;17.20;74.90;;;;;;5010604;28;20050;-64
2023/05/31 10:02:53;;;;;;;0.00;0.00;;;17.10;74.80;;;;;;5027402;28;20056;-64
2023/05/31 10:05:20;;;;;;;1.27;0.57;;;17.10;75.40;;;;;;5030348;28;20444;-63
2023/05/31 10:07:50;;;;;;;0.00;0.00;;;17.20;75.50;;;;;;5010857;28;20064;-63
2023/05/31 10:10:22;;;;;;;0.00;0.00;;;17.20;75.30;;;;;;5028883;28;20525;-63
2023/05/31 10:13:02;;;;;;;0.00;0.00;;;17.10;75.10;;;;;;5027664;28;20160;-64
2023/05/31 10:15:32;;;;;;;0.47;0.47;;;17.10;75.10;;;;;;5028431;28;20054;-64
2023/05/31 10:18:02;;;;;;;0.08;0.08;;;17.10;74.90;;;;;;5028521;28;20042;-64
2023/05/31 10:20:41;;;;;;;0.00;0.00;;;17.10;75.10;;;;;;5011267;28;20494;-65
2023/05/31 10:23:13;;;;;;;0.00;0.00;;;17.10;75.00;;;;;;5029052;28;20072;-65
2023/05/31 10:25:55;;;;;;;0.00;0.00;;;17.10;74.90;;;;;;5016394;28;20049;-64
2023/05/31 10:28:23;;;;;;;;;;;17.10;74.80;;;;;;4993175;28;20447;-65
2023/05/31 10:30:51;;;;;;;0.00;0.00;;;17.00;75.00;;;;;;5030063;28;20346;-66
2023/05/31 10:33:19;;;;;;;0.00;0.00;;;17.00;75.00;;;;;;5022112;28;20419;-64
2023/05/31 10:35:45;;;;;;;0.10;0.10;;;17.00;74.80;;;;;;5026079;28;20061;-64
2023/05/31 10:38:12;;;;;;;0.10;0.10;;;17.10;74.80;;;;;;5028054;28;20049;-65
2023/05/31 10:40:52;;;;;;;0.00;0.00;;;17.10;74.70;;;;;;5010347;28;20049;-64
2023/05/31 10:43:35;;;;;;;0.00;0.00;;;17.10;75.00;;;;;;4993293;28;20054;-64
2023/05/31 10:46:08;;;;;;;0.75;0.75;;;17.20;74.60;;;;;;5010597;28;20074;-66
2023/05/31 10:48:45;;;;;;;0.00;0.00;;;17.20;74.10;;;;;;4992771;28;20041;-65
2023/05/31 10:51:12;;;;;;;0.08;0.08;;;17.10;74.30;;;;;;5019984;28;20048;-65
2023/05/31 10:53:39;;;;;;;0.05;0.05;;;17.20;74.40;;;;;;4996134;28;20053;-65
2023/05/31 10:56:10;;;;;;;0.30;0.30;;;17.30;74.50;;;;;;5029537;28;20056;-65
2023/05/31 10:58:38;;;;;;;0.00;0.00;;;17.30;73.90;;;;;;5012609;28;20111;-66
2023/05/31 11:01:05;;;;;;;0.03;0.03;;;17.30;73.30;;;;;;5013081;28;20580;-65
2023/05/31 11:03:33;;;;;;;0.20;0.20;;;17.20;73.60;;;;;;5012056;28;20039;-65
2023/05/31 11:06:01;;;;;;;0.10;0.10;;;17.20;73.90;;;;;;5029862;28;20076;-65
2023/05/31 11:08:30;;;;;;;0.00;0.00;;;17.30;73.80;;;;;;5029653;28;20049;-65
2023/05/31 11:11:33;;;;;;;0.00;0.00;;;17.40;73.70;;;;;;5029471;28;20068;-65
2023/05/31 11:14:06;;;;;;;0.63;0.63;;;17.40;73.20;;;;;;5029709;28;20052;-66
2023/05/31 11:16:46;;;;;;;0.10;0.10;;;17.40;72.80;;;;;;4995869;28;20136;-65
2023/05/31 11:19:16;;;;;;;0.77;0.70;;;17.30;72.80;;;;;;5029628;28;20459;-65
2023/05/31 11:21:51;;;;;;;0.05;0.05;;;17.30;72.80;;;;;;5029327;28;20099;-64
2023/05/31 11:24:50;;;;;;;0.00;0.00;;;17.30;73.10;;;;;;5029522;28;20082;-64
2023/05/31 11:27:16;;;;;;;0.00;0.00;;;17.40;73.00;;;;;;5006070;28;20439;-63
2023/05/31 11:29:46;;;;;;;0.00;0.00;;;17.50;73.10;;;;;;5009781;28;20715;-65
2023/05/31 11:32:12;;;;;;;0.00;0.00;;;17.50;72.90;;;;;;5009582;28;20107;-65
2023/05/31 11:34:58;;;;;;;0.00;0.00;;;17.50;72.90;;;;;;4991918;28;20050;-65
2023/05/31 11:37:28;;;;;;;0.00;0.00;;;17.60;72.70;;;;;;5010230;28;20049;-64
2023/05/31 11:39:55;;;;;;;0.00;0.00;;;17.70;72.70;;;;;;5028502;28;20037;-64
2023/05/31 11:42:23;;;;;;;0.20;0.20;;;17.80;72.60;;;;;;5028822;28;20065;-64
2023/05/31 11:44:50;;;;;;;0.05;0.05;;;17.80;72.40;;;;;;5028541;28;20051;-64
2023/05/31 11:47:26;;;;;;;0.00;0.00;;;17.80;72.30;;;;;;5028658;28;20076;-64
2023/05/31 11:49:52;;;;;;;0.00;0.00;;;17.90;72.40;;;;;;5028784;28;20053;-65
2023/05/31 11:52:20;;;;;;;0.00;0.00;;;17.90;71.60;;;;;;5022363;28;20391;-63
2023/05/31 11:54:48;;;;;;;0.00;0.00;;;17.90;71.60;;;;;;5028672;28;20049;-65
2023/05/31 11:57:16;;;;;;;0.57;0.30;;;17.80;71.50;;;;;;5029074;28;20052;-64
2023/05/31 11:59:43;;;;;;;2.92;1.10;;;17.90;71.60;;;;;;5028979;28;20132;-65
2023/05/31 12:02:09;;;;;;;0.00;0.00;;;17.90;71.60;;;;;;5028844;28;20037;-64
2023/05/31 12:04:37;;;;;;;0.00;0.00;;;18.00;71.60;;;;;;5028529;28;20041;-64
2023/05/31 12:07:10;;;;;;;0.00;0.00;;;18.00;71.30;;;;;;5028659;28;20045;-64
2023/05/31 12:09:36;;;;;;;0.03;0.03;;;18.10;71.00;;;;;;5028720;28;20102;-65
2023/05/31 12:12:05;;;;;;;0.00;0.00;;;18.00;70.90;;;;;;5027597;28;20077;-64
2023/05/31 12:14:31;;;;;;;0.00;0.00;;;18.00;70.80;;;;;;5027329;28;20057;-65
2023/05/31 12:17:04;;;;;;;0.00;0.00;;;18.10;70.80;;;;;;5025556;28;20061;-65
2023/05/31 12:19:30;;;;;;;0.00;0.00;;;18.10;70.80;;;;;;4987914;28;20121;-66
2023/05/31 12:21:56;;;;;;;0.00;0.00;;;18.20;70.60;;;;;;5019793;28;20579;-66
2023/05/31 12:24:21;;;;;;;1.45;1.35;;;18.20;70.20;;;;;;4991331;28;20125;-66
2023/05/31 12:26:51;;;;;;;0.10;0.10;;;18.20;70.10;;;;;;4982344;28;20391;-65
2023/05/31 12:29:18;;;;;;;0.00;0.00;;;18.20;70.20;;;;;;5028472;28;20119;-66
2023/05/31 12:31:45;;;;;;;0.00;0.00;;;18.30;69.70;;;;;;5027155;28;20398;-66
2023/05/31 12:34:17;;;;;;;0.10;0.10;;;18.30;69.60;;;;;;5027808;28;20045;-66
2023/05/31 12:36:44;;;;;;;0.10;0.10;;;18.30;70.00;;;;;;5017351;28;20030;-66
2023/05/31 12:39:21;;;;;;;0.00;0.00;;;18.40;69.70;;;;;;5008722;28;20124;-66
2023/05/31 12:41:48;;;;;;;0.10;0.10;;;18.40;69.70;;;;;;4974551;28;20045;-66
2023/05/31 12:44:17;;;;;;;0.00;0.00;;;18.40;69.80;;;;;;5010829;28;20068;-66
2023/05/31 12:46:44;;;;;;;0.63;0.63;;;18.50;70.10;;;;;;5025249;28;20041;-66
2023/05/31 12:49:24;;;;;;;0.00;0.00;;;18.50;69.70;;;;;;5006532;28;20061;-66
2023/05/31 12:52:07;;;;;;;0.00;0.00;;;18.50;69.30;;;;;;5003984;28;20080;-66